Time;durP1;ratioP1;P1;durP2;ratioP2;P2;SDS_P1;SDS_P2;PMS_P1;PMS_P2;Temp;Humidity;BMP_temperature;BMP_pressure;BME280_temperature;BME280_humidity;BME280_pressure;Samples;Min_cycle;Max_cycle;Signal;HPM_P1;HPM_P2
2022/03/27 00:00:23;;;;;;;11.23;6.63;;;9.50;99.90;;;;;;4932002;28;20041;-83
2022/03/27 00:02:51;;;;;;;9.07;6.38;;;9.40;99.90;;;;;;4936008;28;20070;-82
2022/03/27 00:05:17;;;;;;;13.43;5.95;;;9.60;99.90;;;;;;4949667;28;20097;-83
2022/03/27 00:07:42;;;;;;;13.52;5.90;;;9.50;99.90;;;;;;4943842;28;20501;-83
2022/03/27 00:10:08;;;;;;;14.73;5.80;;;9.50;99.90;;;;;;4935730;28;20031;-82
2022/03/27 00:12:34;;;;;;;12.80;6.35;;;9.40;99.90;;;;;;4934214;28;20034;-82
2022/03/27 00:15:01;;;;;;;10.38;5.55;;;9.40;99.90;;;;;;4935243;28;20092;-82
2022/03/27 00:17:29;;;;;;;10.45;6.63;;;9.40;99.90;;;;;;4928687;28;20035;-82
2022/03/27 00:19:55;;;;;;;11.93;5.95;;;9.40;99.90;;;;;;4935561;28;20034;-83
2022/03/27 00:22:22;;;;;;;8.65;5.88;;;9.40;99.90;;;;;;4941364;28;20026;-82
2022/03/27 00:24:47;;;;;;;13.18;6.35;;;9.20;99.90;;;;;;4936363;28;20113;-82
2022/03/27 00:27:13;;;;;;;9.50;6.47;;;9.20;99.90;;;;;;4940792;28;20457;-82
2022/03/27 00:29:38;;;;;;;11.15;6.72;;;9.10;99.90;;;;;;4936745;28;20479;-83
2022/03/27 00:32:05;;;;;;;11.30;6.20;;;9.10;99.90;;;;;;4936196;28;20061;-83
2022/03/27 00:34:30;;;;;;;15.23;6.78;;;9.10;99.90;;;;;;4942825;28;20070;-82
2022/03/27 00:36:56;;;;;;;14.10;6.85;;;9.00;99.90;;;;;;4951230;28;20121;-83
2022/03/27 00:39:21;;;;;;;15.20;7.38;;;9.10;99.90;;;;;;4936985;28;20037;-82
2022/03/27 00:41:47;;;;;;;13.18;7.22;;;9.00;99.90;;;;;;4936647;28;20031;-82
2022/03/27 00:44:13;;;;;;;13.95;7.78;;;9.00;99.90;;;;;;4937769;28;20046;-82
2022/03/27 00:46:39;;;;;;;11.27;6.90;;;9.10;99.90;;;;;;4933269;28;20042;-82
2022/03/27 00:49:04;;;;;;;15.07;7.50;;;9.10;99.90;;;;;;4950771;28;20054;-82
2022/03/27 00:51:30;;;;;;;11.90;7.65;;;9.00;99.90;;;;;;4933360;28;20035;-82
2022/03/27 00:53:55;;;;;;;14.93;7.70;;;8.90;99.90;;;;;;4937736;28;20034;-82
2022/03/27 00:56:21;;;;;;;12.40;8.13;;;8.90;99.90;;;;;;4946464;28;20019;-83
2022/03/27 00:58:46;;;;;;;15.88;7.43;;;8.90;99.90;;;;;;4937067;28;20500;-82
2022/03/27 01:01:24;;;;;;;12.10;7.93;;;9.00;99.90;;;;;;4933624;28;20034;-82
2022/03/27 01:03:53;;;;;;;13.20;7.78;;;9.00;99.90;;;;;;4931334;28;20033;-82
2022/03/27 01:06:29;;;;;;;14.65;8.63;;;9.00;99.90;;;;;;4938200;28;20041;-82
2022/03/27 01:11:38;;;;;;;18.05;8.27;;;9.00;99.90;;;;;;4954997;28;20398;-82
2022/03/27 01:14:04;;;;;;;15.30;8.18;;;8.80;99.90;;;;;;4930131;28;20031;-82
2022/03/27 01:16:40;;;;;;;18.95;7.53;;;8.80;99.90;;;;;;4932299;28;20031;-82
2022/03/27 01:19:09;;;;;;;12.80;8.00;;;8.80;99.90;;;;;;4930973;28;20045;-83
2022/03/27 01:21:35;;;;;;;11.75;7.57;;;8.80;99.90;;;;;;4928718;28;20049;-81
2022/03/27 01:24:02;;;;;;;12.43;8.32;;;8.70;99.90;;;;;;4935932;28;20030;-81
2022/03/27 01:26:27;;;;;;;17.45;8.65;;;8.60;99.90;;;;;;4934702;28;20087;-82
2022/03/27 01:28:53;;;;;;;15.15;7.80;;;8.70;99.90;;;;;;4948492;28;20029;-82
2022/03/27 01:31:18;;;;;;;12.85;8.68;;;8.60;99.90;;;;;;4952229;28;20037;-82
2022/03/27 01:33:44;;;;;;;15.30;8.68;;;8.60;99.90;;;;;;4927224;28;20035;-82
2022/03/27 01:36:09;;;;;;;16.45;8.05;;;8.50;99.90;;;;;;4936058;28;20085;-82
2022/03/27 01:38:35;;;;;;;13.43;9.05;;;8.50;99.90;;;;;;4944050;28;20034;-82
2022/03/27 01:41:01;;;;;;;18.58;9.85;;;8.50;99.90;;;;;;4944914;28;20036;-81
2022/03/27 01:43:26;;;;;;;16.98;9.30;;;8.40;99.90;;;;;;4948542;28;20307;-82
2022/03/27 01:45:55;;;;;;;15.52;8.93;;;8.50;99.90;;;;;;4931720;28;20038;-82
2022/03/27 01:48:20;;;;;;;12.80;8.20;;;8.40;99.90;;;;;;4935146;28;20068;-83
2022/03/27 01:50:59;;;;;;;17.08;9.23;;;8.40;99.90;;;;;;4931509;28;20509;-81
2022/03/27 01:53:24;;;;;;;13.95;9.27;;;8.40;99.90;;;;;;4940124;28;20052;-82
2022/03/27 01:55:50;;;;;;;16.00;9.10;;;8.40;99.90;;;;;;4948483;28;20027;-82
2022/03/27 01:58:16;;;;;;;15.40;9.95;;;8.40;99.90;;;;;;4937786;28;20034;-82
2022/03/27 02:00:44;;;;;;;15.38;10.30;;;8.30;99.90;;;;;;4931585;28;20126;-82
2022/03/27 02:03:10;;;;;;;18.08;9.80;;;8.30;99.90;;;;;;4946946;28;20031;-81
2022/03/27 02:05:35;;;;;;;18.50;11.27;;;8.30;99.90;;;;;;4925283;28;20030;-81
2022/03/27 02:08:01;;;;;;;15.73;10.40;;;8.20;99.90;;;;;;4928886;28;20066;-81
2022/03/27 02:10:27;;;;;;;19.60;11.38;;;8.20;99.90;;;;;;4941200;28;20126;-81
2022/03/27 02:12:52;;;;;;;18.45;11.73;;;8.20;99.90;;;;;;4950305;28;20062;-81
2022/03/27 02:15:18;;;;;;;23.55;12.85;;;8.30;99.90;;;;;;4950773;28;20033;-81
2022/03/27 02:17:46;;;;;;;17.38;11.05;;;8.20;99.90;;;;;;4948238;28;20462;-82
2022/03/27 02:20:12;;;;;;;19.80;11.57;;;8.10;99.90;;;;;;4939211;28;20034;-81
2022/03/27 02:22:37;;;;;;;14.00;8.90;;;8.10;99.90;;;;;;4935256;28;20031;-82
2022/03/27 02:25:04;;;;;;;19.83;12.00;;;8.10;99.90;;;;;;4926400;28;20038;-81
2022/03/27 02:27:29;;;;;;;18.35;12.15;;;8.10;99.90;;;;;;4933867;28;20122;-81
2022/03/27 02:29:55;;;;;;;19.58;11.77;;;8.00;99.90;;;;;;4938063;28;20177;-81
2022/03/27 02:32:20;;;;;;;22.05;13.88;;;7.90;99.90;;;;;;4942606;28;20121;-81
2022/03/27 02:34:46;;;;;;;25.15;13.32;;;7.70;99.90;;;;;;4950901;28;20030;-81
2022/03/27 02:37:13;;;;;;;23.77;12.93;;;7.70;99.90;;;;;;4938995;28;20023;-82
2022/03/27 02:39:39;;;;;;;19.30;13.07;;;7.80;99.90;;;;;;4947626;28;20031;-81
2022/03/27 02:42:05;;;;;;;20.63;13.93;;;7.70;99.90;;;;;;4925887;28;20702;-81
2022/03/27 02:44:30;;;;;;;25.63;13.80;;;7.70;99.90;;;;;;4934195;28;20589;-82
2022/03/27 02:46:56;;;;;;;24.15;15.25;;;7.70;99.90;;;;;;4937974;28;20097;-82
2022/03/27 02:49:22;;;;;;;25.60;15.05;;;7.70;99.90;;;;;;4953005;28;20040;-81
2022/03/27 02:51:47;;;;;;;24.50;15.18;;;7.70;99.90;;;;;;4947922;28;20062;-82
2022/03/27 02:54:13;;;;;;;23.27;15.98;;;7.70;99.90;;;;;;4958533;28;20027;-84
2022/03/27 02:56:38;;;;;;;24.17;15.20;;;7.60;99.90;;;;;;4946612;28;20535;-84
2022/03/27 02:59:04;;;;;;;23.35;15.40;;;7.60;99.90;;;;;;4946060;28;20121;-83
2022/03/27 03:01:30;;;;;;;22.90;15.52;;;7.60;99.90;;;;;;4950553;28;20034;-84
2022/03/27 03:03:56;;;;;;;27.73;16.02;;;7.50;99.90;;;;;;4944810;28;20038;-84
2022/03/27 03:06:22;;;;;;;27.83;15.77;;;7.50;99.90;;;;;;4946949;28;20037;-83
2022/03/27 03:08:48;;;;;;;25.40;17.63;;;7.50;99.90;;;;;;4946004;28;20096;-84
2022/03/27 03:11:16;;;;;;;31.25;16.88;;;7.60;99.90;;;;;;4946173;28;20112;-83
2022/03/27 03:13:44;;;;;;;22.08;16.17;;;7.50;99.90;;;;;;4944316;28;20378;-83
2022/03/27 03:16:09;;;;;;;27.45;17.60;;;7.50;99.90;;;;;;4940379;28;20035;-84
2022/03/27 03:18:35;;;;;;;32.70;19.65;;;7.60;99.90;;;;;;4955211;28;20038;-82
2022/03/27 03:21:01;;;;;;;26.80;19.10;;;7.60;99.90;;;;;;4959059;28;20045;-83
2022/03/27 03:23:27;;;;;;;27.10;18.25;;;7.60;99.90;;;;;;4942947;28;20253;-84
2022/03/27 03:25:52;;;;;;;29.88;18.92;;;7.50;99.90;;;;;;4938704;28;20045;-84
2022/03/27 03:28:18;;;;;;;31.88;20.38;;;7.60;99.90;;;;;;4948615;28;20026;-83
2022/03/27 03:30:43;;;;;;;39.42;21.05;;;7.70;99.90;;;;;;4957225;28;20031;-84
2022/03/27 03:33:14;;;;;;;36.50;20.90;;;7.70;99.90;;;;;;4959059;28;20042;-83
2022/03/27 03:35:41;;;;;;;37.13;21.77;;;7.70;99.90;;;;;;4937101;28;20064;-84
2022/03/27 03:38:06;;;;;;;32.58;21.80;;;7.60;99.90;;;;;;4962508;28;20093;-84
2022/03/27 03:40:32;;;;;;;33.05;21.80;;;7.60;99.90;;;;;;4943239;28;20038;-83
2022/03/27 03:42:57;;;;;;;36.80;23.05;;;7.80;99.90;;;;;;4963247;28;20043;-84
2022/03/27 03:45:23;;;;;;;39.42;23.60;;;7.90;99.90;;;;;;4949909;28;20072;-84
2022/03/27 03:47:50;;;;;;;43.67;25.17;;;7.90;99.90;;;;;;4940571;28;20031;-84
2022/03/27 03:50:15;;;;;;;40.90;25.27;;;7.80;99.90;;;;;;4939352;28;20045;-83
2022/03/27 03:52:41;;;;;;;47.40;26.02;;;8.00;99.90;;;;;;4952761;28;20043;-84
2022/03/27 03:55:07;;;;;;;48.83;28.52;;;8.00;99.90;;;;;;4955426;28;20105;-84
2022/03/27 03:57:32;;;;;;;66.75;31.58;;;8.00;99.90;;;;;;4946781;28;20061;-84
2022/03/27 03:59:59;;;;;;;117.95;44.15;;;7.90;99.90;;;;;;4943682;28;20035;-83
2022/03/27 04:02:24;;;;;;;99.60;39.08;;;7.90;99.90;;;;;;4958333;28;20030;-84
2022/03/27 04:04:50;;;;;;;86.57;38.38;;;8.00;99.90;;;;;;4939627;28;20049;-84
2022/03/27 04:07:15;;;;;;;98.10;38.05;;;8.10;99.90;;;;;;4940250;28;20047;-84
2022/03/27 04:09:41;;;;;;;99.25;37.15;;;8.20;99.90;;;;;;4958139;28;20042;-84
2022/03/27 04:12:07;;;;;;;93.13;36.78;;;8.20;99.90;;;;;;4956176;28;20035;-84
2022/03/27 04:14:36;;;;;;;86.03;37.67;;;8.20;99.90;;;;;;4943623;28;20038;-83
2022/03/27 04:17:03;;;;;;;86.72;37.47;;;8.20;99.90;;;;;;4935299;28;20023;-83
2022/03/27 04:19:29;;;;;;;78.55;35.00;;;8.20;99.90;;;;;;4938180;28;20088;-84
2022/03/27 04:21:55;;;;;;;87.75;36.17;;;8.20;99.90;;;;;;4938407;28;20075;-84
2022/03/27 04:24:20;;;;;;;76.50;35.55;;;8.30;99.90;;;;;;4951623;28;20030;-83
2022/03/27 04:26:46;;;;;;;74.13;33.00;;;8.40;99.90;;;;;;4953044;28;20022;-84
2022/03/27 04:29:12;;;;;;;59.33;31.63;;;8.40;99.90;;;;;;4940198;28;20018;-83
2022/03/27 04:31:39;;;;;;;68.65;36.45;;;8.40;99.90;;;;;;4972580;28;20019;-83
2022/03/27 04:34:04;;;;;;;74.57;36.63;;;8.30;99.90;;;;;;4944278;28;20026;-83
2022/03/27 04:36:30;;;;;;;69.60;35.35;;;8.40;99.90;;;;;;4959223;28;20092;-84
2022/03/27 04:38:56;;;;;;;72.07;33.80;;;8.40;99.90;;;;;;4944027;28;20038;-83
2022/03/27 04:41:21;;;;;;;77.18;32.85;;;8.40;99.90;;;;;;4959280;28;20053;-83
2022/03/27 04:43:48;;;;;;;71.93;34.65;;;8.40;99.90;;;;;;4969643;28;20031;-84
2022/03/27 04:46:17;;;;;;;74.82;34.00;;;8.40;99.90;;;;;;4959901;28;20030;-84
2022/03/27 04:48:43;;;;;;;67.32;33.78;;;8.50;99.90;;;;;;4940945;28;20049;-84
2022/03/27 04:51:09;;;;;;;60.08;28.88;;;8.50;99.90;;;;;;4944307;28;20022;-82
2022/03/27 04:53:34;;;;;;;86.68;35.38;;;8.50;99.90;;;;;;4975956;28;20564;-84
2022/03/27 04:56:00;;;;;;;82.80;37.58;;;8.40;99.90;;;;;;4957721;28;20027;-83
2022/03/27 04:58:25;;;;;;;84.60;35.78;;;8.50;99.90;;;;;;4956603;28;20061;-84
2022/03/27 05:00:51;;;;;;;85.35;38.35;;;8.50;99.90;;;;;;4934281;28;20062;-84
2022/03/27 05:03:17;;;;;;;98.13;38.85;;;8.50;99.90;;;;;;4966863;28;20248;-83
2022/03/27 05:05:43;;;;;;;89.22;37.10;;;8.60;99.90;;;;;;4943561;28;20038;-83
2022/03/27 05:08:09;;;;;;;101.47;38.80;;;8.60;99.90;;;;;;4965514;28;20477;-83
2022/03/27 05:10:35;;;;;;;99.05;39.75;;;8.60;99.90;;;;;;4946446;28;20030;-83
2022/03/27 05:13:01;;;;;;;88.40;39.25;;;8.60;99.90;;;;;;4945034;28;20187;-83
2022/03/27 05:15:27;;;;;;;78.28;37.15;;;8.60;99.90;;;;;;4948479;28;20504;-83
2022/03/27 05:17:56;;;;;;;85.65;37.55;;;8.60;99.90;;;;;;4964757;28;20353;-83
2022/03/27 05:20:22;;;;;;;64.00;37.25;;;8.60;99.90;;;;;;4952537;28;20027;-83
2022/03/27 05:22:47;;;;;;;65.07;35.80;;;8.60;99.90;;;;;;4956732;28;20501;-82
2022/03/27 05:25:15;;;;;;;56.33;35.60;;;8.60;99.90;;;;;;4954477;28;20033;-82
2022/03/27 05:27:44;;;;;;;68.05;35.42;;;8.60;99.90;;;;;;4949907;28;20062;-82
2022/03/27 05:30:10;;;;;;;68.35;36.42;;;8.70;99.90;;;;;;4970749;28;20090;-83
2022/03/27 05:32:38;;;;;;;55.42;32.67;;;8.70;99.90;;;;;;4948950;28;20050;-82
2022/03/27 05:35:04;;;;;;;65.75;34.17;;;8.70;99.90;;;;;;4985600;28;20532;-82
2022/03/27 05:37:29;;;;;;;58.55;36.03;;;8.70;99.90;;;;;;4952533;28;20035;-83
2022/03/27 05:39:58;;;;;;;58.45;35.42;;;8.70;99.90;;;;;;4963438;28;20054;-82
2022/03/27 05:42:24;;;;;;;64.03;34.67;;;8.70;99.90;;;;;;4957279;28;20026;-82
2022/03/27 05:44:49;;;;;;;53.50;32.53;;;8.70;99.90;;;;;;4945291;28;20835;-83
2022/03/27 05:47:15;;;;;;;59.45;33.85;;;8.70;99.90;;;;;;4957481;28;20034;-83
2022/03/27 05:49:41;;;;;;;56.65;32.58;;;8.70;99.90;;;;;;4964094;28;20039;-83
2022/03/27 05:52:06;;;;;;;57.83;34.72;;;8.70;99.90;;;;;;4949039;28;20042;-83
2022/03/27 05:54:32;;;;;;;54.45;33.17;;;8.70;99.90;;;;;;4954126;28;20041;-83
2022/03/27 05:56:58;;;;;;;62.40;34.50;;;8.90;99.90;;;;;;4955767;28;20142;-82
2022/03/27 05:59:24;;;;;;;55.95;33.70;;;8.80;99.90;;;;;;4955388;28;20042;-82
2022/03/27 06:01:49;;;;;;;64.10;34.08;;;8.70;99.90;;;;;;4949678;28;20038;-82
2022/03/27 06:04:15;;;;;;;55.63;35.70;;;8.80;99.90;;;;;;4953653;28;20262;-83
2022/03/27 06:06:41;;;;;;;59.08;35.85;;;8.90;99.90;;;;;;4968239;28;20149;-82
2022/03/27 06:09:06;;;;;;;55.10;32.53;;;8.80;99.90;;;;;;4935890;28;20143;-83
2022/03/27 06:11:32;;;;;;;59.47;35.75;;;8.90;99.90;;;;;;4969692;28;20029;-81
2022/03/27 06:13:57;;;;;;;55.33;33.30;;;8.90;99.90;;;;;;4969648;28;20058;-82
2022/03/27 06:16:23;;;;;;;62.55;33.75;;;8.90;99.90;;;;;;4957185;28;20034;-84
2022/03/27 06:18:49;;;;;;;58.33;34.63;;;8.90;99.90;;;;;;4952265;28;20038;-83
2022/03/27 06:21:14;;;;;;;54.15;30.58;;;9.00;99.90;;;;;;4957254;28;20040;-83
2022/03/27 06:23:40;;;;;;;57.10;33.38;;;9.00;99.90;;;;;;4957282;28;20082;-84
2022/03/27 06:26:06;;;;;;;53.63;33.33;;;9.00;99.90;;;;;;4966523;28;20512;-83
2022/03/27 06:28:32;;;;;;;54.97;33.38;;;9.00;99.90;;;;;;4956148;28;20026;-83
2022/03/27 06:30:57;;;;;;;52.03;31.42;;;9.00;99.90;;;;;;4941889;28;20047;-83
2022/03/27 06:33:43;;;;;;;55.30;31.60;;;9.10;99.90;;;;;;4943351;28;20035;-83
2022/03/27 06:36:09;;;;;;;56.05;32.53;;;9.10;99.90;;;;;;4963011;28;20094;-84
2022/03/27 06:38:35;;;;;;;56.28;34.03;;;9.20;99.90;;;;;;4949105;28;20054;-84
2022/03/27 06:41:07;;;;;;;51.75;31.13;;;9.10;99.90;;;;;;4954013;28;20035;-83
2022/03/27 06:43:36;;;;;;;53.22;32.10;;;9.20;99.90;;;;;;4972451;28;20066;-83
2022/03/27 06:46:05;;;;;;;56.45;32.35;;;9.20;99.90;;;;;;4952979;28;20034;-82
2022/03/27 06:48:30;;;;;;;55.10;32.00;;;9.30;99.90;;;;;;4956594;28;20106;-83
2022/03/27 06:50:59;;;;;;;52.42;31.95;;;9.30;99.90;;;;;;4965327;28;20093;-84
2022/03/27 06:53:25;;;;;;;50.60;30.55;;;9.30;99.90;;;;;;4946191;28;20038;-83
2022/03/27 06:55:53;;;;;;;49.15;30.70;;;9.30;99.90;;;;;;4937770;28;20038;-84
2022/03/27 06:58:19;;;;;;;52.20;30.67;;;9.40;99.90;;;;;;4948736;28;20057;-84
2022/03/27 07:03:29;;;;;;;62.30;30.40;;;9.40;99.90;;;;;;4960648;28;20040;-84
2022/03/27 07:05:54;;;;;;;45.92;29.67;;;9.50;99.90;;;;;;4950434;28;20098;-82
2022/03/27 07:08:20;;;;;;;55.33;31.70;;;9.50;99.90;;;;;;4950858;28;20038;-83
2022/03/27 07:10:46;;;;;;;51.60;31.58;;;9.60;99.90;;;;;;4947809;28;20053;-84
2022/03/27 07:13:13;;;;;;;49.55;31.15;;;9.70;99.90;;;;;;4951943;28;20057;-83
2022/03/27 07:15:41;;;;;;;51.95;30.63;;;9.70;99.90;;;;;;4950557;28;20031;-82
2022/03/27 07:18:07;;;;;;;43.88;27.55;;;9.80;99.90;;;;;;4956056;28;20030;-83
2022/03/27 07:20:46;;;;;;;47.72;31.60;;;9.90;99.90;;;;;;4942855;28;20037;-83
2022/03/27 07:23:15;;;;;;;45.45;28.52;;;10.00;99.90;;;;;;4958155;28;20038;-83
2022/03/27 07:25:44;;;;;;;52.22;29.65;;;10.10;99.90;;;;;;4952413;28;20042;-81
2022/03/27 07:28:10;;;;;;;44.90;29.27;;;10.10;99.90;;;;;;4942410;28;20039;-83
2022/03/27 07:30:40;;;;;;;43.70;27.67;;;10.20;99.90;;;;;;4950908;28;20474;-83
2022/03/27 07:33:06;;;;;;;47.30;29.23;;;10.30;99.90;;;;;;4974650;28;20048;-82
2022/03/27 07:35:32;;;;;;;44.35;27.08;;;10.40;99.90;;;;;;4948750;28;20054;-84
2022/03/27 07:37:58;;;;;;;44.20;27.70;;;10.50;99.90;;;;;;4965397;28;20054;-83
2022/03/27 07:40:26;;;;;;;46.30;28.25;;;10.50;99.90;;;;;;4965157;28;20482;-81
2022/03/27 07:42:53;;;;;;;44.50;27.70;;;10.60;99.90;;;;;;4952503;28;20026;-84
2022/03/27 07:45:21;;;;;;;46.78;28.77;;;10.70;99.90;;;;;;4960954;28;20026;-83
2022/03/27 07:47:55;;;;;;;43.95;26.17;;;10.90;99.90;;;;;;4966841;28;20034;-83
2022/03/27 07:50:22;;;;;;;41.78;26.10;;;11.00;99.90;;;;;;4945765;28;20033;-83
2022/03/27 07:52:48;;;;;;;44.58;27.33;;;11.10;99.90;;;;;;4954779;28;20030;-82
2022/03/27 07:55:17;;;;;;;40.97;27.33;;;11.20;99.90;;;;;;4972809;28;20030;-83
2022/03/27 07:57:43;;;;;;;40.67;26.35;;;11.30;99.90;;;;;;4949697;28;20068;-84
2022/03/27 08:00:13;;;;;;;49.95;27.63;;;11.40;99.90;;;;;;4959227;28;20022;-82
2022/03/27 08:02:39;;;;;;;43.05;26.65;;;11.50;99.90;;;;;;4944412;28;20015;-83
2022/03/27 08:05:06;;;;;;;43.17;26.90;;;11.70;99.90;;;;;;4961024;28;20577;-82
2022/03/27 08:07:32;;;;;;;47.70;27.95;;;11.80;99.90;;;;;;4973331;28;20045;-83
2022/03/27 08:10:01;;;;;;;49.10;29.85;;;11.90;99.90;;;;;;4940106;28;20458;-84
2022/03/27 08:12:27;;;;;;;47.05;27.17;;;12.10;99.90;;;;;;4945225;28;20045;-83
2022/03/27 08:14:56;;;;;;;46.70;26.48;;;12.20;99.90;;;;;;4947155;28;20146;-84
2022/03/27 08:17:22;;;;;;;46.08;26.85;;;12.30;99.90;;;;;;4941591;28;20065;-84
2022/03/27 08:19:54;;;;;;;47.83;28.40;;;12.40;99.90;;;;;;4941142;28;20061;-83
2022/03/27 08:22:20;;;;;;;51.70;30.23;;;12.60;99.90;;;;;;4939058;28;20046;-84
2022/03/27 08:24:46;;;;;;;49.45;28.13;;;12.80;99.90;;;;;;4951282;28;20039;-82
2022/03/27 08:27:11;;;;;;;48.15;28.00;;;12.90;99.90;;;;;;4952579;28;20042;-83
2022/03/27 08:29:43;;;;;;;53.47;28.73;;;13.00;99.90;;;;;;4937356;28;20069;-83
2022/03/27 08:32:12;;;;;;;48.58;28.58;;;13.10;99.90;;;;;;4940621;28;20690;-83
2022/03/27 08:34:40;;;;;;;50.58;26.35;;;13.30;99.90;;;;;;4947943;28;20585;-83
2022/03/27 08:37:16;;;;;;;49.35;28.42;;;13.30;99.90;;;;;;4953856;28;20037;-83
2022/03/27 08:39:44;;;;;;;46.42;26.23;;;13.50;99.90;;;;;;4955702;28;20034;-82
2022/03/27 08:42:11;;;;;;;51.17;27.23;;;13.60;99.90;;;;;;4959649;28;20090;-82
2022/03/27 08:44:37;;;;;;;49.78;28.75;;;13.70;99.90;;;;;;4940258;28;20061;-83
2022/03/27 08:47:06;;;;;;;54.30;29.73;;;13.80;99.90;;;;;;4966580;28;20031;-83
2022/03/27 08:49:47;;;;;;;52.78;28.50;;;13.90;99.90;;;;;;4945027;28;20414;-84
2022/03/27 08:52:21;;;;;;;53.45;29.90;;;14.00;99.90;;;;;;4984069;28;20038;-81
2022/03/27 08:55:03;;;;;;;53.33;28.95;;;14.20;99.90;;;;;;4983656;28;20089;-84
2022/03/27 08:57:37;;;;;;;52.05;28.77;;;14.30;99.90;;;;;;4988777;28;20036;-84
2022/03/27 09:00:04;;;;;;;52.20;29.33;;;14.30;99.90;;;;;;4985927;28;20121;-84
2022/03/27 09:02:30;;;;;;;57.08;31.50;;;14.50;99.90;;;;;;4936398;28;20037;-83
2022/03/27 09:04:59;;;;;;;54.30;28.83;;;14.60;99.90;;;;;;4937535;28;20494;-83
2022/03/27 09:07:25;;;;;;;45.40;25.02;;;14.70;99.90;;;;;;4927308;28;20046;-83
2022/03/27 09:10:03;;;;;;;52.63;28.90;;;14.80;99.90;;;;;;4937936;28;20030;-83
2022/03/27 09:12:40;;;;;;;53.13;29.35;;;14.80;99.90;;;;;;4968207;28;20130;-84
2022/03/27 09:15:16;;;;;;;49.75;28.60;;;15.00;99.90;;;;;;4939535;28;20038;-85
2022/03/27 09:18:13;;;;;;;53.50;28.50;;;15.00;99.90;;;;;;4952900;28;20447;-84
2022/03/27 09:21:22;;;;;;;64.05;33.10;;;15.10;99.90;;;;;;4973094;28;20034;-84
2022/03/27 09:24:19;;;;;;;48.33;26.02;;;15.30;99.90;;;;;;4947778;28;20026;-84
2022/03/27 09:26:58;;;;;;;56.75;28.85;;;15.30;99.90;;;;;;4948095;28;20034;-82
2022/03/27 09:29:25;;;;;;;52.15;28.13;;;15.50;99.90;;;;;;4958827;28;20030;-83
2022/03/27 09:32:00;;;;;;;50.95;28.58;;;15.70;99.90;;;;;;4970688;28;20042;-83
2022/03/27 09:34:26;;;;;;;51.95;29.35;;;15.70;99.90;;;;;;4954990;28;20040;-85
2022/03/27 09:36:52;;;;;;;57.90;29.45;;;15.90;99.90;;;;;;4951767;28;20328;-85
2022/03/27 09:39:20;;;;;;;48.45;27.38;;;15.90;99.90;;;;;;4945123;28;20037;-83
2022/03/27 09:42:00;;;;;;;52.42;28.75;;;16.10;99.90;;;;;;4949406;28;20041;-84
2022/03/27 09:44:29;;;;;;;51.47;28.73;;;16.20;99.90;;;;;;4946625;28;20042;-84
2022/03/27 09:47:08;;;;;;;52.67;29.58;;;16.30;99.90;;;;;;5000938;28;20049;-86
2022/03/27 09:49:34;;;;;;;49.17;28.63;;;16.50;99.90;;;;;;4938587;28;20041;-85
2022/03/27 09:52:08;;;;;;;47.00;27.45;;;16.60;99.90;;;;;;4998916;28;20058;-85
2022/03/27 09:54:56;;;;;;;33.42;20.40;;;16.80;99.90;;;;;;4980440;28;20034;-85
2022/03/27 09:57:33;;;;;;;39.17;21.90;;;16.90;99.90;;;;;;4993681;28;20473;-85
2022/03/27 10:00:19;;;;;;;40.55;22.92;;;17.00;99.90;;;;;;4945934;28;20038;-85
2022/03/27 10:03:08;;;;;;;33.10;20.83;;;17.20;99.90;;;;;;4973426;28;20039;-85
2022/03/27 10:05:34;;;;;;;40.60;23.70;;;17.30;99.90;;;;;;4977714;28;20034;-85
2022/03/27 10:07:59;;;;;;;45.60;24.63;;;17.40;99.90;;;;;;4937008;28;20042;-85
2022/03/27 10:10:26;;;;;;;42.83;23.88;;;17.50;99.90;;;;;;4950427;28;20023;-85
2022/03/27 10:12:53;;;;;;;43.95;23.55;;;17.60;99.90;;;;;;4946327;28;20061;-85
2022/03/27 10:15:26;;;;;;;46.00;23.90;;;17.70;99.90;;;;;;4958215;28;20030;-84
2022/03/27 10:17:58;;;;;;;43.83;26.55;;;17.80;99.90;;;;;;4976338;28;20030;-86
2022/03/27 10:20:27;;;;;;;40.97;24.98;;;17.90;99.90;;;;;;4948966;28;20035;-86
2022/03/27 10:22:56;;;;;;;41.17;24.40;;;18.00;99.90;;;;;;4941909;28;20040;-86
2022/03/27 10:25:21;;;;;;;39.25;23.98;;;18.10;99.90;;;;;;4937944;28;20037;-86
2022/03/27 10:27:47;;;;;;;43.38;25.15;;;18.20;99.90;;;;;;4938677;28;20494;-85
2022/03/27 10:30:14;;;;;;;46.28;27.70;;;18.30;99.90;;;;;;4947780;28;20129;-84
2022/03/27 10:32:41;;;;;;;42.40;25.80;;;18.40;99.90;;;;;;4930676;28;20455;-83
2022/03/27 10:35:25;;;;;;;42.75;26.05;;;18.50;99.90;;;;;;4944633;28;20070;-83
2022/03/27 10:38:05;;;;;;;40.72;24.27;;;18.60;99.90;;;;;;4948992;28;20085;-83
2022/03/27 10:40:55;;;;;;;39.67;23.48;;;18.70;99.90;;;;;;4950546;28;20286;-80
2022/03/27 10:43:49;;;;;;;37.40;23.35;;;18.80;99.90;;;;;;4985199;28;20363;-83
2022/03/27 10:46:25;;;;;;;36.65;23.90;;;18.70;99.90;;;;;;4951171;28;20515;-83
2022/03/27 10:48:52;;;;;;;;;;;18.60;99.90;;;;;;4962385;28;20075;-84
2022/03/27 10:51:28;;;;;;;33.28;22.15;;;18.40;99.90;;;;;;4970002;28;20004;-83
2022/03/27 10:54:11;;;;;;;33.53;22.30;;;18.40;99.90;;;;;;4985658;28;20042;-83
2022/03/27 10:56:44;;;;;;;33.05;21.40;;;18.30;99.90;;;;;;4945603;28;20105;-82
2022/03/27 10:59:15;;;;;;;30.50;17.55;;;18.10;99.90;;;;;;4944032;28;20046;-83
2022/03/27 11:01:42;;;;;;;34.70;20.42;;;18.00;99.90;;;;;;4937163;28;20053;-81
2022/03/27 11:04:08;;;;;;;29.73;19.55;;;17.90;99.90;;;;;;4966739;28;20050;-82
2022/03/27 11:06:38;;;;;;;29.30;18.50;;;17.70;99.90;;;;;;4958830;28;20054;-82
2022/03/27 11:09:06;;;;;;;27.73;19.15;;;17.60;99.90;;;;;;4935458;28;20173;-81
2022/03/27 11:11:37;;;;;;;26.63;19.23;;;17.50;99.90;;;;;;4951023;28;20046;-81
2022/03/27 11:14:09;;;;;;;29.05;19.98;;;17.50;99.90;;;;;;4989183;28;20049;-82
2022/03/27 11:17:02;;;;;;;27.70;18.98;;;17.20;99.90;;;;;;4932253;28;20031;-81
2022/03/27 11:19:45;;;;;;;26.02;17.35;;;17.10;99.90;;;;;;4952636;28;20035;-82
2022/03/27 11:22:42;;;;;;;24.95;16.58;;;17.20;99.90;;;;;;4960719;28;20101;-82
2022/03/27 11:25:38;;;;;;;29.65;19.77;;;17.10;99.90;;;;;;4991258;28;20088;-82
2022/03/27 11:28:06;;;;;;;24.02;17.58;;;16.90;99.90;;;;;;4972550;28;20031;-82
2022/03/27 11:30:32;;;;;;;29.50;19.63;;;16.80;99.90;;;;;;4969053;28;20137;-82
2022/03/27 11:33:20;;;;;;;25.17;18.73;;;16.70;99.90;;;;;;4957233;28;20034;-85
2022/03/27 11:36:01;;;;;;;27.50;18.00;;;17.30;99.90;;;;;;4958146;28;20040;-82
2022/03/27 11:38:36;;;;;;;25.10;17.73;;;17.30;99.90;;;;;;4981729;28;20057;-83
2022/03/27 11:41:24;;;;;;;33.28;20.90;;;17.20;99.90;;;;;;4956975;28;20080;-83
2022/03/27 11:43:50;;;;;;;28.15;19.65;;;17.00;99.90;;;;;;4988731;28;20394;-82
2022/03/27 11:46:27;;;;;;;24.35;16.15;;;17.10;99.90;;;;;;4928903;28;20033;-82
2022/03/27 11:49:00;;;;;;;27.75;20.02;;;17.40;99.90;;;;;;4966799;28;20042;-82
2022/03/27 11:51:26;;;;;;;30.23;21.30;;;17.80;99.90;;;;;;4935101;28;20088;-82
2022/03/27 11:53:52;;;;;;;31.58;21.52;;;18.20;99.90;;;;;;4938237;28;20038;-82
2022/03/27 11:56:18;;;;;;;27.17;17.63;;;17.90;99.90;;;;;;4940578;28;20026;-82
2022/03/27 11:58:45;;;;;;;22.17;14.88;;;18.40;99.90;;;;;;4953979;28;20545;-82
2022/03/27 12:01:10;;;;;;;25.80;16.98;;;18.90;99.90;;;;;;4954707;28;20386;-83
2022/03/27 12:03:39;;;;;;;25.15;19.38;;;18.40;99.90;;;;;;4941750;28;20031;-83
2022/03/27 12:06:09;;;;;;;30.40;18.90;;;17.90;99.90;;;;;;4941277;28;20070;-83
2022/03/27 12:08:39;;;;;;;28.42;19.17;;;17.30;99.90;;;;;;4942652;28;20031;-83
2022/03/27 12:11:06;;;;;;;28.92;18.77;;;18.20;99.90;;;;;;4953130;28;20050;-83
2022/03/27 12:13:43;;;;;;;21.35;14.98;;;17.80;99.90;;;;;;4958909;28;20137;-81
2022/03/27 12:16:20;;;;;;;24.13;15.70;;;18.00;99.90;;;;;;4951467;28;20030;-83
2022/03/27 12:18:47;;;;;;;27.67;17.98;;;17.50;99.90;;;;;;4952486;28;20049;-82
2022/03/27 12:21:13;;;;;;;21.45;16.23;;;17.20;99.90;;;;;;4953488;28;20043;-83
2022/03/27 12:24:02;;;;;;;22.30;16.73;;;17.20;99.90;;;;;;4933475;28;20034;-83
2022/03/27 12:29:49;;;;;;;16.00;12.48;;;17.20;99.90;;;;;;4959762;28;20113;-82
2022/03/27 12:32:25;;;;;;;25.40;15.63;;;18.60;99.90;;;;;;4970579;28;20120;-83
2022/03/27 12:35:01;;;;;;;18.90;13.82;;;19.00;99.90;;;;;;4935990;28;20297;-83
2022/03/27 12:37:30;;;;;;;17.17;13.00;;;18.50;99.90;;;;;;4956906;28;20068;-83
2022/03/27 12:39:56;;;;;;;18.90;14.30;;;17.70;99.90;;;;;;4933411;28;20558;-83
2022/03/27 12:42:45;;;;;;;20.55;14.73;;;17.80;99.90;;;;;;4965430;28;20502;-83
2022/03/27 12:45:23;;;;;;;18.38;13.90;;;17.70;99.90;;;;;;4981888;28;20749;-82
2022/03/27 12:47:54;;;;;;;17.52;12.88;;;17.50;99.90;;;;;;4981420;28;20027;-82
2022/03/27 12:50:26;;;;;;;18.48;13.18;;;17.40;99.90;;;;;;4963690;28;20043;-83
2022/03/27 12:53:01;;;;;;;18.42;14.18;;;17.30;99.90;;;;;;4983911;28;20068;-83